sensor_id;sensor_type;location;lat;lon;timestamp;temperature;humidity
65568;DHT22;52211;50.154;8.682;2022-11-20T00:01:46;5.40;74.20
65568;DHT22;52211;50.154;8.682;2022-11-20T00:04:13;5.40;74.10
65568;DHT22;52211;50.154;8.682;2022-11-20T00:06:42;5.40;74.00
65568;DHT22;52211;50.154;8.682;2022-11-20T00:09:13;5.40;74.00
65568;DHT22;52211;50.154;8.682;2022-11-20T00:11:40;5.40;74.00
65568;DHT22;52211;50.154;8.682;2022-11-20T00:14:09;5.40;73.90
65568;DHT22;52211;50.154;8.682;2022-11-20T00:16:38;5.40;73.90
65568;DHT22;52211;50.154;8.682;2022-11-20T00:19:05;5.40;73.90
65568;DHT22;52211;50.154;8.682;2022-11-20T00:21:39;5.40;73.90
65568;DHT22;52211;50.154;8.682;2022-11-20T00:24:09;5.40;74.00
65568;DHT22;52211;50.154;8.682;2022-11-20T00:26:46;5.40;74.00
65568;DHT22;52211;50.154;8.682;2022-11-20T00:29:18;5.40;74.00
65568;DHT22;52211;50.154;8.682;2022-11-20T00:31:47;5.40;74.00
65568;DHT22;52211;50.154;8.682;2022-11-20T00:34:16;5.40;74.00
65568;DHT22;52211;50.154;8.682;2022-11-20T00:36:43;5.50;74.00
65568;DHT22;52211;50.154;8.682;2022-11-20T00:39:10;5.50;74.20
65568;DHT22;52211;50.154;8.682;2022-11-20T00:41:37;5.50;74.20
65568;DHT22;52211;50.154;8.682;2022-11-20T00:44:04;5.50;74.00
65568;DHT22;52211;50.154;8.682;2022-11-20T00:46:33;5.50;74.00
65568;DHT22;52211;50.154;8.682;2022-11-20T00:49:07;5.50;74.00
65568;DHT22;52211;50.154;8.682;2022-11-20T00:51:36;5.50;73.90
65568;DHT22;52211;50.154;8.682;2022-11-20T00:54:03;5.50;73.90
65568;DHT22;52211;50.154;8.682;2022-11-20T00:56:34;5.50;73.90
65568;DHT22;52211;50.154;8.682;2022-11-20T00:59:03;5.50;73.90
65568;DHT22;52211;50.154;8.682;2022-11-20T01:01:33;5.50;73.90
65568;DHT22;52211;50.154;8.682;2022-11-20T01:04:00;5.50;73.80
65568;DHT22;52211;50.154;8.682;2022-11-20T01:06:34;5.50;73.90
65568;DHT22;52211;50.154;8.682;2022-11-20T01:09:09;5.50;73.70
65568;DHT22;52211;50.154;8.682;2022-11-20T01:11:43;5.40;73.70
65568;DHT22;52211;50.154;8.682;2022-11-20T01:14:18;5.40;73.80
65568;DHT22;52211;50.154;8.682;2022-11-20T01:16:48;5.40;74.40
65568;DHT22;52211;50.154;8.682;2022-11-20T01:19:21;5.40;73.90
65568;DHT22;52211;50.154;8.682;2022-11-20T01:21:54;5.40;73.80
65568;DHT22;52211;50.154;8.682;2022-11-20T01:24:22;5.40;73.80
65568;DHT22;52211;50.154;8.682;2022-11-20T01:26:53;5.40;73.80
65568;DHT22;52211;50.154;8.682;2022-11-20T01:29:22;5.40;73.80
65568;DHT22;52211;50.154;8.682;2022-11-20T01:31:53;5.40;73.80
65568;DHT22;52211;50.154;8.682;2022-11-20T01:34:21;5.40;73.70
65568;DHT22;52211;50.154;8.682;2022-11-20T01:36:49;5.40;73.70
65568;DHT22;52211;50.154;8.682;2022-11-20T01:39:28;5.30;73.80
65568;DHT22;52211;50.154;8.682;2022-11-20T01:41:55;5.30;73.70
65568;DHT22;52211;50.154;8.682;2022-11-20T01:47:43;5.30;73.80
65568;DHT22;52211;50.154;8.682;2022-11-20T01:50:19;5.30;73.80
65568;DHT22;52211;50.154;8.682;2022-11-20T01:53:01;5.20;73.80
65568;DHT22;52211;50.154;8.682;2022-11-20T01:55:36;5.20;73.80
65568;DHT22;52211;50.154;8.682;2022-11-20T01:58:11;5.20;73.90
65568;DHT22;52211;50.154;8.682;2022-11-20T02:00:41;5.20;73.90
65568;DHT22;52211;50.154;8.682;2022-11-20T02:03:15;5.20;73.90
65568;DHT22;52211;50.154;8.682;2022-11-20T02:08:45;5.20;74.00
65568;DHT22;52211;50.154;8.682;2022-11-20T02:11:16;5.20;74.10
65568;DHT22;52211;50.154;8.682;2022-11-20T02:13:42;5.20;74.10
65568;DHT22;52211;50.154;8.682;2022-11-20T02:16:33;5.20;74.20
65568;DHT22;52211;50.154;8.682;2022-11-20T02:19:10;5.20;74.00
65568;DHT22;52211;50.154;8.682;2022-11-20T02:21:55;5.10;74.00
65568;DHT22;52211;50.154;8.682;2022-11-20T02:24:30;5.10;74.00
65568;DHT22;52211;50.154;8.682;2022-11-20T02:27:08;5.10;74.00
65568;DHT22;52211;50.154;8.682;2022-11-20T02:29:49;5.10;74.00
65568;DHT22;52211;50.154;8.682;2022-11-20T02:32:30;5.10;74.00
65568;DHT22;52211;50.154;8.682;2022-11-20T02:37:50;5.10;74.00
65568;DHT22;52211;50.154;8.682;2022-11-20T02:40:19;5.10;74.20
65568;DHT22;52211;50.154;8.682;2022-11-20T02:42:54;5.10;74.00
65568;DHT22;52211;50.154;8.682;2022-11-20T02:45:25;5.10;74.00
65568;DHT22;52211;50.154;8.682;2022-11-20T02:47:52;5.10;73.90
65568;DHT22;52211;50.154;8.682;2022-11-20T02:50:23;5.00;73.90
65568;DHT22;52211;50.154;8.682;2022-11-20T02:52:55;5.00;74.00
65568;DHT22;52211;50.154;8.682;2022-11-20T02:55:21;5.00;74.00
65568;DHT22;52211;50.154;8.682;2022-11-20T02:57:48;5.00;74.10
65568;DHT22;52211;50.154;8.682;2022-11-20T03:00:18;5.00;74.10
65568;DHT22;52211;50.154;8.682;2022-11-20T03:02:47;4.90;74.00
65568;DHT22;52211;50.154;8.682;2022-11-20T03:05:14;5.00;74.20
65568;DHT22;52211;50.154;8.682;2022-11-20T03:07:46;4.90;74.20
65568;DHT22;52211;50.154;8.682;2022-11-20T03:10:15;4.90;74.10
65568;DHT22;52211;50.154;8.682;2022-11-20T03:12:42;4.90;74.60
65568;DHT22;52211;50.154;8.682;2022-11-20T03:15:13;4.90;74.00
65568;DHT22;52211;50.154;8.682;2022-11-20T03:17:45;4.90;74.10
65568;DHT22;52211;50.154;8.682;2022-11-20T03:20:16;4.90;74.10
65568;DHT22;52211;50.154;8.682;2022-11-20T03:22:43;4.90;74.10
65568;DHT22;52211;50.154;8.682;2022-11-20T03:25:12;4.90;74.10
65568;DHT22;52211;50.154;8.682;2022-11-20T03:27:39;4.90;74.10
65568;DHT22;52211;50.154;8.682;2022-11-20T03:30:06;4.80;74.20
65568;DHT22;52211;50.154;8.682;2022-11-20T03:32:36;4.80;74.20
65568;DHT22;52211;50.154;8.682;2022-11-20T03:35:06;4.80;74.30
65568;DHT22;52211;50.154;8.682;2022-11-20T03:37:33;4.80;74.30
65568;DHT22;52211;50.154;8.682;2022-11-20T03:40:07;4.80;74.30
65568;DHT22;52211;50.154;8.682;2022-11-20T03:42:34;4.80;74.30
65568;DHT22;52211;50.154;8.682;2022-11-20T03:45:19;4.90;74.40
65568;DHT22;52211;50.154;8.682;2022-11-20T03:47:46;4.90;74.30
65568;DHT22;52211;50.154;8.682;2022-11-20T03:50:15;4.90;74.10
65568;DHT22;52211;50.154;8.682;2022-11-20T03:52:42;4.80;74.20
65568;DHT22;52211;50.154;8.682;2022-11-20T03:55:09;4.80;74.30
65568;DHT22;52211;50.154;8.682;2022-11-20T03:57:38;4.80;74.20
65568;DHT22;52211;50.154;8.682;2022-11-20T04:00:08;4.80;74.20
65568;DHT22;52211;50.154;8.682;2022-11-20T04:02:35;4.80;74.20
65568;DHT22;52211;50.154;8.682;2022-11-20T04:05:07;4.80;74.20
65568;DHT22;52211;50.154;8.682;2022-11-20T04:07:36;4.80;74.30
65568;DHT22;52211;50.154;8.682;2022-11-20T04:10:04;4.80;74.30
65568;DHT22;52211;50.154;8.682;2022-11-20T04:12:33;4.80;74.30
65568;DHT22;52211;50.154;8.682;2022-11-20T04:15:00;4.80;74.20
65568;DHT22;52211;50.154;8.682;2022-11-20T04:17:32;4.80;74.20
65568;DHT22;52211;50.154;8.682;2022-11-20T04:20:02;4.80;74.30
65568;DHT22;52211;50.154;8.682;2022-11-20T04:22:34;4.80;74.30
65568;DHT22;52211;50.154;8.682;2022-11-20T04:25:04;4.80;74.40
65568;DHT22;52211;50.154;8.682;2022-11-20T04:27:36;4.80;74.30
65568;DHT22;52211;50.154;8.682;2022-11-20T04:30:03;4.80;74.30
65568;DHT22;52211;50.154;8.682;2022-11-20T04:32:30;4.80;74.20
65568;DHT22;52211;50.154;8.682;2022-11-20T04:34:59;4.80;74.10
65568;DHT22;52211;50.154;8.682;2022-11-20T04:37:30;4.70;74.10
65568;DHT22;52211;50.154;8.682;2022-11-20T04:40:00;4.70;74.20
65568;DHT22;52211;50.154;8.682;2022-11-20T04:42:26;4.70;74.30
65568;DHT22;52211;50.154;8.682;2022-11-20T04:44:56;4.70;74.30
65568;DHT22;52211;50.154;8.682;2022-11-20T04:47:24;4.70;74.30
65568;DHT22;52211;50.154;8.682;2022-11-20T04:49:53;4.70;74.40
65568;DHT22;52211;50.154;8.682;2022-11-20T04:52:22;4.80;74.50
65568;DHT22;52211;50.154;8.682;2022-11-20T04:54:53;4.80;74.40
65568;DHT22;52211;50.154;8.682;2022-11-20T04:57:22;4.80;74.40
65568;DHT22;52211;50.154;8.682;2022-11-20T04:59:49;4.80;74.30
65568;DHT22;52211;50.154;8.682;2022-11-20T05:02:17;4.90;74.50
65568;DHT22;52211;50.154;8.682;2022-11-20T05:04:51;4.90;74.40
65568;DHT22;52211;50.154;8.682;2022-11-20T05:07:22;4.90;74.40
65568;DHT22;52211;50.154;8.682;2022-11-20T05:09:51;4.90;74.40
65568;DHT22;52211;50.154;8.682;2022-11-20T05:12:20;4.90;74.30
65568;DHT22;52211;50.154;8.682;2022-11-20T05:14:49;4.90;74.40
65568;DHT22;52211;50.154;8.682;2022-11-20T05:17:16;4.90;74.30
65568;DHT22;52211;50.154;8.682;2022-11-20T05:19:43;4.90;74.30
65568;DHT22;52211;50.154;8.682;2022-11-20T05:22:14;4.90;74.20
65568;DHT22;52211;50.154;8.682;2022-11-20T05:24:44;4.90;74.10
65568;DHT22;52211;50.154;8.682;2022-11-20T05:27:15;4.90;74.10
65568;DHT22;52211;50.154;8.682;2022-11-20T05:29:42;4.90;74.20
65568;DHT22;52211;50.154;8.682;2022-11-20T05:32:09;4.90;74.20
65568;DHT22;52211;50.154;8.682;2022-11-20T05:34:38;4.90;74.20
65568;DHT22;52211;50.154;8.682;2022-11-20T05:37:05;5.00;74.20
65568;DHT22;52211;50.154;8.682;2022-11-20T05:39:36;5.00;74.30
65568;DHT22;52211;50.154;8.682;2022-11-20T05:42:10;5.00;74.30
65568;DHT22;52211;50.154;8.682;2022-11-20T05:44:55;5.00;74.20
65568;DHT22;52211;50.154;8.682;2022-11-20T05:47:33;5.00;74.20
65568;DHT22;52211;50.154;8.682;2022-11-20T05:50:05;5.00;74.20
65568;DHT22;52211;50.154;8.682;2022-11-20T05:52:32;5.00;74.30
65568;DHT22;52211;50.154;8.682;2022-11-20T05:55:04;5.00;74.40
65568;DHT22;52211;50.154;8.682;2022-11-20T05:57:31;5.00;74.50
65568;DHT22;52211;50.154;8.682;2022-11-20T06:00:01;5.00;74.30
65568;DHT22;52211;50.154;8.682;2022-11-20T06:02:34;5.10;74.30
65568;DHT22;52211;50.154;8.682;2022-11-20T06:05:02;5.00;74.10
65568;DHT22;52211;50.154;8.682;2022-11-20T06:07:31;5.10;74.10
65568;DHT22;52211;50.154;8.682;2022-11-20T06:10:01;5.10;74.10
65568;DHT22;52211;50.154;8.682;2022-11-20T06:12:30;5.10;74.10
65568;DHT22;52211;50.154;8.682;2022-11-20T06:14:58;5.10;74.00
65568;DHT22;52211;50.154;8.682;2022-11-20T06:17:26;5.00;74.00
65568;DHT22;52211;50.154;8.682;2022-11-20T06:19:53;5.10;74.20
65568;DHT22;52211;50.154;8.682;2022-11-20T06:22:20;5.10;74.20
65568;DHT22;52211;50.154;8.682;2022-11-20T06:24:49;5.10;74.20
65568;DHT22;52211;50.154;8.682;2022-11-20T06:27:18;5.10;74.10
65568;DHT22;52211;50.154;8.682;2022-11-20T06:29:50;5.10;74.10
65568;DHT22;52211;50.154;8.682;2022-11-20T06:32:16;5.00;74.00
65568;DHT22;52211;50.154;8.682;2022-11-20T06:34:43;5.10;74.10
65568;DHT22;52211;50.154;8.682;2022-11-20T06:37:13;5.00;74.00
65568;DHT22;52211;50.154;8.682;2022-11-20T06:39:42;5.00;74.10
65568;DHT22;52211;50.154;8.682;2022-11-20T06:42:11;5.00;74.10
65568;DHT22;52211;50.154;8.682;2022-11-20T06:44:42;5.00;74.10
65568;DHT22;52211;50.154;8.682;2022-11-20T06:47:09;5.00;74.20
65568;DHT22;52211;50.154;8.682;2022-11-20T06:49:36;5.00;74.20
65568;DHT22;52211;50.154;8.682;2022-11-20T06:52:07;5.00;74.20
65568;DHT22;52211;50.154;8.682;2022-11-20T06:54:38;5.10;74.40
65568;DHT22;52211;50.154;8.682;2022-11-20T06:57:05;5.10;74.40
65568;DHT22;52211;50.154;8.682;2022-11-20T06:59:34;5.10;74.40
65568;DHT22;52211;50.154;8.682;2022-11-20T07:02:08;5.10;74.30
65568;DHT22;52211;50.154;8.682;2022-11-20T07:04:43;5.20;74.50
65568;DHT22;52211;50.154;8.682;2022-11-20T07:07:14;5.20;74.30
65568;DHT22;52211;50.154;8.682;2022-11-20T07:09:46;5.20;74.40
65568;DHT22;52211;50.154;8.682;2022-11-20T07:12:15;5.20;74.40
65568;DHT22;52211;50.154;8.682;2022-11-20T07:14:46;5.20;74.40
65568;DHT22;52211;50.154;8.682;2022-11-20T07:17:16;5.30;74.40
65568;DHT22;52211;50.154;8.682;2022-11-20T07:19:42;5.30;74.30
65568;DHT22;52211;50.154;8.682;2022-11-20T07:22:12;5.30;74.40
65568;DHT22;52211;50.154;8.682;2022-11-20T07:24:41;5.20;74.20
65568;DHT22;52211;50.154;8.682;2022-11-20T07:27:14;5.30;74.10
65568;DHT22;52211;50.154;8.682;2022-11-20T07:29:43;5.30;74.10
65568;DHT22;52211;50.154;8.682;2022-11-20T07:32:12;5.30;74.00
65568;DHT22;52211;50.154;8.682;2022-11-20T07:34:39;5.30;74.00
65568;DHT22;52211;50.154;8.682;2022-11-20T07:37:09;5.20;74.10
65568;DHT22;52211;50.154;8.682;2022-11-20T07:39:38;5.20;74.10
65568;DHT22;52211;50.154;8.682;2022-11-20T07:42:10;5.20;74.10
65568;DHT22;52211;50.154;8.682;2022-11-20T07:44:38;5.20;74.20
65568;DHT22;52211;50.154;8.682;2022-11-20T07:47:09;5.20;74.20
65568;DHT22;52211;50.154;8.682;2022-11-20T07:49:38;5.20;74.40
65568;DHT22;52211;50.154;8.682;2022-11-20T07:52:08;5.20;74.40
65568;DHT22;52211;50.154;8.682;2022-11-20T07:54:37;5.20;74.40
65568;DHT22;52211;50.154;8.682;2022-11-20T07:57:06;5.20;74.40
65568;DHT22;52211;50.154;8.682;2022-11-20T07:59:33;5.20;74.40
65568;DHT22;52211;50.154;8.682;2022-11-20T08:02:00;5.20;74.50
65568;DHT22;52211;50.154;8.682;2022-11-20T08:04:27;5.20;74.60
65568;DHT22;52211;50.154;8.682;2022-11-20T08:06:56;5.20;74.70
65568;DHT22;52211;50.154;8.682;2022-11-20T08:09:25;5.30;74.70
65568;DHT22;52211;50.154;8.682;2022-11-20T08:11:57;5.30;74.90
65568;DHT22;52211;50.154;8.682;2022-11-20T08:14:45;5.30;74.90
65568;DHT22;52211;50.154;8.682;2022-11-20T08:17:15;5.40;74.90
65568;DHT22;52211;50.154;8.682;2022-11-20T08:19:49;5.40;74.80
65568;DHT22;52211;50.154;8.682;2022-11-20T08:22:18;5.40;74.80
65568;DHT22;52211;50.154;8.682;2022-11-20T08:24:49;5.50;75.00
65568;DHT22;52211;50.154;8.682;2022-11-20T08:27:20;5.50;75.00
65568;DHT22;52211;50.154;8.682;2022-11-20T08:29:49;5.50;74.90
65568;DHT22;52211;50.154;8.682;2022-11-20T08:32:21;5.60;75.00
65568;DHT22;52211;50.154;8.682;2022-11-20T08:34:50;5.60;74.90
65568;DHT22;52211;50.154;8.682;2022-11-20T08:37:19;5.70;74.80
65568;DHT22;52211;50.154;8.682;2022-11-20T08:39:46;5.70;74.80
65568;DHT22;52211;50.154;8.682;2022-11-20T08:42:17;5.70;74.80
65568;DHT22;52211;50.154;8.682;2022-11-20T08:44:44;5.80;74.80
65568;DHT22;52211;50.154;8.682;2022-11-20T08:47:11;5.80;74.80
65568;DHT22;52211;50.154;8.682;2022-11-20T08:49:38;5.80;74.70
65568;DHT22;52211;50.154;8.682;2022-11-20T08:52:05;5.80;74.70
65568;DHT22;52211;50.154;8.682;2022-11-20T08:54:32;5.90;74.70
65568;DHT22;52211;50.154;8.682;2022-11-20T08:56:59;5.90;74.50
65568;DHT22;52211;50.154;8.682;2022-11-20T08:59:28;5.90;74.50
65568;DHT22;52211;50.154;8.682;2022-11-20T09:02:15;5.90;74.50
65568;DHT22;52211;50.154;8.682;2022-11-20T09:04:46;5.90;74.40
65568;DHT22;52211;50.154;8.682;2022-11-20T09:07:13;5.90;74.50
65568;DHT22;52211;50.154;8.682;2022-11-20T09:09:43;6.00;74.50
65568;DHT22;52211;50.154;8.682;2022-11-20T09:12:12;5.90;74.50
65568;DHT22;52211;50.154;8.682;2022-11-20T09:14:41;6.00;74.50
65568;DHT22;52211;50.154;8.682;2022-11-20T09:17:10;6.00;74.50
65568;DHT22;52211;50.154;8.682;2022-11-20T09:19:44;6.00;74.60
65568;DHT22;52211;50.154;8.682;2022-11-20T09:22:14;6.10;74.70
65568;DHT22;52211;50.154;8.682;2022-11-20T09:24:43;6.10;74.80
65568;DHT22;52211;50.154;8.682;2022-11-20T09:27:10;6.10;74.60
65568;DHT22;52211;50.154;8.682;2022-11-20T09:29:39;6.20;74.70
65568;DHT22;52211;50.154;8.682;2022-11-20T09:32:06;6.20;74.60
65568;DHT22;52211;50.154;8.682;2022-11-20T09:34:33;6.20;74.60
65568;DHT22;52211;50.154;8.682;2022-11-20T09:37:09;6.20;74.70
65568;DHT22;52211;50.154;8.682;2022-11-20T09:39:40;6.30;74.80
65568;DHT22;52211;50.154;8.682;2022-11-20T09:42:36;6.30;74.70
65568;DHT22;52211;50.154;8.682;2022-11-20T09:48:18;6.50;74.80
65568;DHT22;52211;50.154;8.682;2022-11-20T09:51:11;6.50;75.00
65568;DHT22;52211;50.154;8.682;2022-11-20T09:56:58;6.70;75.20
65568;DHT22;52211;50.154;8.682;2022-11-20T09:59:36;6.80;75.20
65568;DHT22;52211;50.154;8.682;2022-11-20T10:02:26;6.90;75.70
65568;DHT22;52211;50.154;8.682;2022-11-20T10:08:27;7.10;75.20
65568;DHT22;52211;50.154;8.682;2022-11-20T10:11:18;7.20;75.10
65568;DHT22;52211;50.154;8.682;2022-11-20T10:22:22;7.60;74.50
65568;DHT22;52211;50.154;8.682;2022-11-20T10:25:22;7.70;74.30
65568;DHT22;52211;50.154;8.682;2022-11-20T10:31:48;7.70;73.90
65568;DHT22;52211;50.154;8.682;2022-11-20T10:34:47;7.70;74.00
65568;DHT22;52211;50.154;8.682;2022-11-20T10:37:36;7.70;74.00
65568;DHT22;52211;50.154;8.682;2022-11-20T10:40:28;7.70;73.90
65568;DHT22;52211;50.154;8.682;2022-11-20T10:43:15;7.70;73.80
65568;DHT22;52211;50.154;8.682;2022-11-20T10:46:01;7.70;73.70
65568;DHT22;52211;50.154;8.682;2022-11-20T10:48:36;7.60;74.30
65568;DHT22;52211;50.154;8.682;2022-11-20T10:51:35;7.60;73.80
65568;DHT22;52211;50.154;8.682;2022-11-20T10:56:53;7.60;74.00
65568;DHT22;52211;50.154;8.682;2022-11-20T11:02:22;7.60;73.90
65568;DHT22;52211;50.154;8.682;2022-11-20T11:04:53;7.60;73.80
65568;DHT22;52211;50.154;8.682;2022-11-20T11:07:30;7.60;74.00
65568;DHT22;52211;50.154;8.682;2022-11-20T11:13:23;7.60;73.90
65568;DHT22;52211;50.154;8.682;2022-11-20T11:15:57;7.60;74.10
65568;DHT22;52211;50.154;8.682;2022-11-20T11:19:24;7.70;74.20
65568;DHT22;52211;50.154;8.682;2022-11-20T11:27:12;7.70;74.00
65568;DHT22;52211;50.154;8.682;2022-11-20T11:29:45;7.70;74.10
65568;DHT22;52211;50.154;8.682;2022-11-20T11:32:18;7.80;74.20
65568;DHT22;52211;50.154;8.682;2022-11-20T11:35:00;7.80;74.10
65568;DHT22;52211;50.154;8.682;2022-11-20T11:37:34;7.80;74.00
65568;DHT22;52211;50.154;8.682;2022-11-20T11:40:08;7.80;74.00
65568;DHT22;52211;50.154;8.682;2022-11-20T11:43:01;7.80;74.10
65568;DHT22;52211;50.154;8.682;2022-11-20T11:45:31;7.80;74.00
65568;DHT22;52211;50.154;8.682;2022-11-20T11:48:03;7.80;74.10
65568;DHT22;52211;50.154;8.682;2022-11-20T11:50:34;7.90;74.20
65568;DHT22;52211;50.154;8.682;2022-11-20T11:53:13;7.90;74.10
65568;DHT22;52211;50.154;8.682;2022-11-20T11:58:56;7.90;74.00
65568;DHT22;52211;50.154;8.682;2022-11-20T12:01:35;7.90;73.80
65568;DHT22;52211;50.154;8.682;2022-11-20T12:04:20;8.00;74.20
65568;DHT22;52211;50.154;8.682;2022-11-20T12:10:22;8.10;74.80
65568;DHT22;52211;50.154;8.682;2022-11-20T12:12:59;8.20;74.20
65568;DHT22;52211;50.154;8.682;2022-11-20T12:15:44;8.30;74.20
65568;DHT22;52211;50.154;8.682;2022-11-20T12:18:18;8.30;74.10
65568;DHT22;52211;50.154;8.682;2022-11-20T12:30:04;8.40;74.00
65568;DHT22;52211;50.154;8.682;2022-11-20T12:38:45;8.50;73.30
65568;DHT22;52211;50.154;8.682;2022-11-20T12:44:48;8.50;73.50
65568;DHT22;52211;50.154;8.682;2022-11-20T13:02:51;8.70;73.40
65568;DHT22;52211;50.154;8.682;2022-11-20T13:08:39;8.70;74.20
65568;DHT22;52211;50.154;8.682;2022-11-20T13:19:54;8.80;73.30
65568;DHT22;52211;50.154;8.682;2022-11-20T13:22:41;8.80;73.40
65568;DHT22;52211;50.154;8.682;2022-11-20T13:25:29;8.80;73.50
65568;DHT22;52211;50.154;8.682;2022-11-20T13:30:55;8.80;73.40
65568;DHT22;52211;50.154;8.682;2022-11-20T13:33:31;8.80;73.50
65568;DHT22;52211;50.154;8.682;2022-11-20T13:39:02;8.90;73.50
65568;DHT22;52211;50.154;8.682;2022-11-20T13:41:32;8.90;73.40
65568;DHT22;52211;50.154;8.682;2022-11-20T13:46:38;8.90;73.50
65568;DHT22;52211;50.154;8.682;2022-11-20T13:49:20;8.90;73.50
65568;DHT22;52211;50.154;8.682;2022-11-20T14:00:56;8.90;73.40
65568;DHT22;52211;50.154;8.682;2022-11-20T14:03:34;8.90;73.40
65568;DHT22;52211;50.154;8.682;2022-11-20T14:08:58;8.80;73.40
65568;DHT22;52211;50.154;8.682;2022-11-20T14:11:28;8.80;73.50
65568;DHT22;52211;50.154;8.682;2022-11-20T14:16:36;8.90;73.50
65568;DHT22;52211;50.154;8.682;2022-11-20T14:22:06;8.80;73.40
65568;DHT22;52211;50.154;8.682;2022-11-20T14:27:46;8.80;73.80
65568;DHT22;52211;50.154;8.682;2022-11-20T14:30:23;8.80;73.40
65568;DHT22;52211;50.154;8.682;2022-11-20T14:33:02;8.70;73.30
65568;DHT22;52211;50.154;8.682;2022-11-20T14:35:35;8.70;73.30
65568;DHT22;52211;50.154;8.682;2022-11-20T14:38:11;8.70;73.40
65568;DHT22;52211;50.154;8.682;2022-11-20T14:40:45;8.70;73.40
65568;DHT22;52211;50.154;8.682;2022-11-20T14:49:00;8.70;73.40
65568;DHT22;52211;50.154;8.682;2022-11-20T14:54:27;8.60;73.30
65568;DHT22;52211;50.154;8.682;2022-11-20T14:59:33;8.60;73.30
65568;DHT22;52211;50.154;8.682;2022-11-20T15:02:08;8.60;73.30
65568;DHT22;52211;50.154;8.682;2022-11-20T15:05:04;8.60;73.40
65568;DHT22;52211;50.154;8.682;2022-11-20T15:07:36;8.60;73.30
65568;DHT22;52211;50.154;8.682;2022-11-20T15:13:29;8.60;73.50
65568;DHT22;52211;50.154;8.682;2022-11-20T15:15:57;8.60;73.50
65568;DHT22;52211;50.154;8.682;2022-11-20T15:18:32;8.60;73.60
65568;DHT22;52211;50.154;8.682;2022-11-20T15:21:20;8.60;73.50
65568;DHT22;52211;50.154;8.682;2022-11-20T15:23:48;8.60;73.40
65568;DHT22;52211;50.154;8.682;2022-11-20T15:26:24;8.60;73.50
65568;DHT22;52211;50.154;8.682;2022-11-20T15:28:55;8.60;73.40
65568;DHT22;52211;50.154;8.682;2022-11-20T15:31:26;8.50;73.40
65568;DHT22;52211;50.154;8.682;2022-11-20T15:33:58;8.50;73.40
65568;DHT22;52211;50.154;8.682;2022-11-20T15:36:25;8.50;73.50
65568;DHT22;52211;50.154;8.682;2022-11-20T15:38:52;8.50;73.50
65568;DHT22;52211;50.154;8.682;2022-11-20T15:41:19;8.50;73.60
65568;DHT22;52211;50.154;8.682;2022-11-20T15:43:48;8.50;73.60
65568;DHT22;52211;50.154;8.682;2022-11-20T15:46:18;8.50;73.60
65568;DHT22;52211;50.154;8.682;2022-11-20T15:48:56;8.50;73.60
65568;DHT22;52211;50.154;8.682;2022-11-20T15:51:31;8.50;73.60
65568;DHT22;52211;50.154;8.682;2022-11-20T15:54:03;8.50;73.70
65568;DHT22;52211;50.154;8.682;2022-11-20T15:56:40;8.50;73.70
65568;DHT22;52211;50.154;8.682;2022-11-20T15:59:10;8.50;73.70
65568;DHT22;52211;50.154;8.682;2022-11-20T16:01:37;8.60;73.70
65568;DHT22;52211;50.154;8.682;2022-11-20T16:04:07;8.50;73.70
65568;DHT22;52211;50.154;8.682;2022-11-20T16:06:36;8.60;73.80
65568;DHT22;52211;50.154;8.682;2022-11-20T16:09:03;8.60;73.80
65568;DHT22;52211;50.154;8.682;2022-11-20T16:11:33;8.60;73.80
65568;DHT22;52211;50.154;8.682;2022-11-20T16:14:06;8.60;73.80
65568;DHT22;52211;50.154;8.682;2022-11-20T16:16:52;8.60;73.90
65568;DHT22;52211;50.154;8.682;2022-11-20T16:19:21;8.60;73.80
65568;DHT22;52211;50.154;8.682;2022-11-20T16:21:50;8.60;73.80
65568;DHT22;52211;50.154;8.682;2022-11-20T16:24:28;8.70;73.90
65568;DHT22;52211;50.154;8.682;2022-11-20T16:27:00;8.70;73.80
65568;DHT22;52211;50.154;8.682;2022-11-20T16:29:30;8.60;74.30
65568;DHT22;52211;50.154;8.682;2022-11-20T16:31:59;8.70;73.80
65568;DHT22;52211;50.154;8.682;2022-11-20T16:34:26;8.60;73.70
65568;DHT22;52211;50.154;8.682;2022-11-20T16:36:56;8.60;73.70
65568;DHT22;52211;50.154;8.682;2022-11-20T16:39:25;8.60;73.70
65568;DHT22;52211;50.154;8.682;2022-11-20T16:41:52;8.60;73.70
65568;DHT22;52211;50.154;8.682;2022-11-20T16:44:19;8.60;74.30
65568;DHT22;52211;50.154;8.682;2022-11-20T16:46:49;8.60;73.70
65568;DHT22;52211;50.154;8.682;2022-11-20T16:49:18;8.60;73.70
65568;DHT22;52211;50.154;8.682;2022-11-20T16:51:45;8.60;73.70
65568;DHT22;52211;50.154;8.682;2022-11-20T16:54:15;8.60;73.80
65568;DHT22;52211;50.154;8.682;2022-11-20T16:56:46;8.60;73.90
65568;DHT22;52211;50.154;8.682;2022-11-20T16:59:13;8.60;73.80
65568;DHT22;52211;50.154;8.682;2022-11-20T17:01:45;8.60;73.80
65568;DHT22;52211;50.154;8.682;2022-11-20T17:04:17;8.60;73.90
65568;DHT22;52211;50.154;8.682;2022-11-20T17:06:44;8.60;73.90
65568;DHT22;52211;50.154;8.682;2022-11-20T17:09:16;8.60;73.90
65568;DHT22;52211;50.154;8.682;2022-11-20T17:11:49;8.60;73.90
65568;DHT22;52211;50.154;8.682;2022-11-20T17:14:19;8.50;73.90
65568;DHT22;52211;50.154;8.682;2022-11-20T17:16:49;8.50;73.90
65568;DHT22;52211;50.154;8.682;2022-11-20T17:19:25;8.50;73.90
65568;DHT22;52211;50.154;8.682;2022-11-20T17:21:59;8.50;74.00
65568;DHT22;52211;50.154;8.682;2022-11-20T17:24:28;8.50;74.10
65568;DHT22;52211;50.154;8.682;2022-11-20T17:27:03;8.50;74.30
65568;DHT22;52211;50.154;8.682;2022-11-20T17:29:32;8.50;74.30
65568;DHT22;52211;50.154;8.682;2022-11-20T17:32:06;8.50;74.30
65568;DHT22;52211;50.154;8.682;2022-11-20T17:34:37;8.50;74.40
65568;DHT22;52211;50.154;8.682;2022-11-20T17:37:06;8.50;74.40
65568;DHT22;52211;50.154;8.682;2022-11-20T17:39:36;8.50;74.50
65568;DHT22;52211;50.154;8.682;2022-11-20T17:42:03;8.50;74.50
65568;DHT22;52211;50.154;8.682;2022-11-20T17:44:48;8.50;74.50
65568;DHT22;52211;50.154;8.682;2022-11-20T17:47:18;8.50;75.00
65568;DHT22;52211;50.154;8.682;2022-11-20T17:49:45;8.50;74.50
65568;DHT22;52211;50.154;8.682;2022-11-20T17:52:12;8.50;74.50
65568;DHT22;52211;50.154;8.682;2022-11-20T17:54:39;8.50;74.50
65568;DHT22;52211;50.154;8.682;2022-11-20T17:57:05;8.50;74.60
65568;DHT22;52211;50.154;8.682;2022-11-20T17:59:52;8.50;74.60
65568;DHT22;52211;50.154;8.682;2022-11-20T18:02:24;8.50;74.60
65568;DHT22;52211;50.154;8.682;2022-11-20T18:04:53;8.50;74.70
65568;DHT22;52211;50.154;8.682;2022-11-20T18:07:20;8.50;74.70
65568;DHT22;52211;50.154;8.682;2022-11-20T18:09:47;8.50;74.70
65568;DHT22;52211;50.154;8.682;2022-11-20T18:12:17;8.60;74.80
65568;DHT22;52211;50.154;8.682;2022-11-20T18:14:48;8.60;74.80
65568;DHT22;52211;50.154;8.682;2022-11-20T18:17:18;8.60;74.80
65568;DHT22;52211;50.154;8.682;2022-11-20T18:19:50;8.60;74.70
65568;DHT22;52211;50.154;8.682;2022-11-20T18:22:41;8.60;74.70
65568;DHT22;52211;50.154;8.682;2022-11-20T18:25:17;8.60;74.70
65568;DHT22;52211;50.154;8.682;2022-11-20T18:27:53;8.50;74.70
65568;DHT22;52211;50.154;8.682;2022-11-20T18:30:23;8.60;74.80
65568;DHT22;52211;50.154;8.682;2022-11-20T18:32:52;8.60;74.70
65568;DHT22;52211;50.154;8.682;2022-11-20T18:35:19;8.60;74.70
65568;DHT22;52211;50.154;8.682;2022-11-20T18:37:45;8.60;74.70